sensor_id;sensor_type;location;lat;lon;timestamp;P1;durP1;ratioP1;P2;durP2;ratioP2
24273;SDS011;12392;42.678;23.380;2023-04-06T00:01:35;10.88;;;7.28;;
24273;SDS011;12392;42.678;23.380;2023-04-06T00:04:01;14.05;;;7.70;;
24273;SDS011;12392;42.678;23.380;2023-04-06T00:06:26;11.48;;;7.45;;
24273;SDS011;12392;42.678;23.380;2023-04-06T00:08:52;9.77;;;6.45;;
24273;SDS011;12392;42.678;23.380;2023-04-06T00:11:18;12.90;;;7.60;;
24273;SDS011;12392;42.678;23.380;2023-04-06T00:13:44;12.82;;;7.03;;
24273;SDS011;12392;42.678;23.380;2023-04-06T00:16:10;11.38;;;6.82;;
24273;SDS011;12392;42.678;23.380;2023-04-06T00:18:36;10.07;;;6.57;;
24273;SDS011;12392;42.678;23.380;2023-04-06T00:21:02;8.38;;;6.03;;
24273;SDS011;12392;42.678;23.380;2023-04-06T00:23:28;8.55;;;6.38;;
24273;SDS011;12392;42.678;23.380;2023-04-06T00:25:54;9.98;;;6.53;;
24273;SDS011;12392;42.678;23.380;2023-04-06T00:28:20;8.90;;;5.90;;
24273;SDS011;12392;42.678;23.380;2023-04-06T00:30:50;11.18;;;6.72;;
24273;SDS011;12392;42.678;23.380;2023-04-06T00:33:18;11.00;;;6.97;;
24273;SDS011;12392;42.678;23.380;2023-04-06T00:35:44;11.20;;;7.20;;
24273;SDS011;12392;42.678;23.380;2023-04-06T00:38:10;12.25;;;7.20;;
24273;SDS011;12392;42.678;23.380;2023-04-06T00:40:36;10.20;;;6.95;;
24273;SDS011;12392;42.678;23.380;2023-04-06T00:43:02;13.02;;;7.88;;
24273;SDS011;12392;42.678;23.380;2023-04-06T00:45:28;12.45;;;7.82;;
24273;SDS011;12392;42.678;23.380;2023-04-06T00:47:53;10.93;;;6.82;;
24273;SDS011;12392;42.678;23.380;2023-04-06T00:50:19;11.68;;;7.40;;
24273;SDS011;12392;42.678;23.380;2023-04-06T00:52:45;9.70;;;6.78;;
24273;SDS011;12392;42.678;23.380;2023-04-06T00:55:11;10.93;;;5.28;;
24273;SDS011;12392;42.678;23.380;2023-04-06T00:57:37;9.93;;;5.35;;
24273;SDS011;12392;42.678;23.380;2023-04-06T01:00:03;9.15;;;5.88;;
24273;SDS011;12392;42.678;23.380;2023-04-06T01:02:29;8.45;;;5.07;;
24273;SDS011;12392;42.678;23.380;2023-04-06T01:04:55;10.45;;;6.40;;
24273;SDS011;12392;42.678;23.380;2023-04-06T01:07:21;9.00;;;6.32;;
24273;SDS011;12392;42.678;23.380;2023-04-06T01:09:46;10.20;;;6.65;;
24273;SDS011;12392;42.678;23.380;2023-04-06T01:12:12;10.45;;;7.10;;
24273;SDS011;12392;42.678;23.380;2023-04-06T01:14:38;9.70;;;6.43;;
24273;SDS011;12392;42.678;23.380;2023-04-06T01:17:03;7.50;;;5.45;;
24273;SDS011;12392;42.678;23.380;2023-04-06T01:19:29;7.03;;;5.25;;
24273;SDS011;12392;42.678;23.380;2023-04-06T01:21:55;8.38;;;5.63;;
24273;SDS011;12392;42.678;23.380;2023-04-06T01:24:21;9.70;;;6.03;;
24273;SDS011;12392;42.678;23.380;2023-04-06T01:26:47;11.02;;;5.15;;
24273;SDS011;12392;42.678;23.380;2023-04-06T01:29:12;10.85;;;6.53;;
24273;SDS011;12392;42.678;23.380;2023-04-06T01:31:39;9.38;;;6.10;;
24273;SDS011;12392;42.678;23.380;2023-04-06T01:34:05;9.05;;;5.97;;
24273;SDS011;12392;42.678;23.380;2023-04-06T01:36:31;7.97;;;5.13;;
24273;SDS011;12392;42.678;23.380;2023-04-06T01:38:57;7.03;;;4.95;;
24273;SDS011;12392;42.678;23.380;2023-04-06T01:41:23;10.30;;;6.25;;
24273;SDS011;12392;42.678;23.380;2023-04-06T01:43:48;9.57;;;6.00;;
24273;SDS011;12392;42.678;23.380;2023-04-06T01:46:14;8.25;;;5.00;;
24273;SDS011;12392;42.678;23.380;2023-04-06T01:48:40;6.68;;;4.45;;
24273;SDS011;12392;42.678;23.380;2023-04-06T01:51:06;10.00;;;5.57;;
24273;SDS011;12392;42.678;23.380;2023-04-06T01:53:32;8.52;;;5.25;;
24273;SDS011;12392;42.678;23.380;2023-04-06T01:55:58;8.00;;;5.95;;
24273;SDS011;12392;42.678;23.380;2023-04-06T01:58:24;7.88;;;6.07;;
24273;SDS011;12392;42.678;23.380;2023-04-06T02:00:50;9.00;;;4.93;;
24273;SDS011;12392;42.678;23.380;2023-04-06T02:03:16;7.45;;;5.55;;
24273;SDS011;12392;42.678;23.380;2023-04-06T02:05:41;9.00;;;5.68;;
24273;SDS011;12392;42.678;23.380;2023-04-06T02:08:07;8.05;;;5.25;;
24273;SDS011;12392;42.678;23.380;2023-04-06T02:10:34;9.80;;;6.10;;
24273;SDS011;12392;42.678;23.380;2023-04-06T02:13:00;11.48;;;6.00;;
24273;SDS011;12392;42.678;23.380;2023-04-06T02:15:26;11.00;;;6.63;;
24273;SDS011;12392;42.678;23.380;2023-04-06T02:17:51;11.60;;;7.30;;
24273;SDS011;12392;42.678;23.380;2023-04-06T02:20:17;11.07;;;7.10;;
24273;SDS011;12392;42.678;23.380;2023-04-06T02:22:43;7.82;;;6.25;;
24273;SDS011;12392;42.678;23.380;2023-04-06T02:25:09;8.63;;;6.00;;
24273;SDS011;12392;42.678;23.380;2023-04-06T02:27:35;7.90;;;5.45;;
24273;SDS011;12392;42.678;23.380;2023-04-06T02:30:01;8.00;;;5.82;;
24273;SDS011;12392;42.678;23.380;2023-04-06T02:32:30;10.98;;;5.60;;
24273;SDS011;12392;42.678;23.380;2023-04-06T02:34:55;10.98;;;6.05;;
24273;SDS011;12392;42.678;23.380;2023-04-06T02:37:21;6.13;;;3.72;;
24273;SDS011;12392;42.678;23.380;2023-04-06T02:39:49;7.55;;;3.85;;
24273;SDS011;12392;42.678;23.380;2023-04-06T02:42:15;7.55;;;4.55;;
24273;SDS011;12392;42.678;23.380;2023-04-06T02:44:43;10.23;;;5.13;;
24273;SDS011;12392;42.678;23.380;2023-04-06T02:47:09;8.10;;;4.63;;
24273;SDS011;12392;42.678;23.380;2023-04-06T02:49:35;8.93;;;5.38;;
24273;SDS011;12392;42.678;23.380;2023-04-06T02:52:01;7.38;;;5.28;;
24273;SDS011;12392;42.678;23.380;2023-04-06T02:54:27;9.02;;;6.43;;
24273;SDS011;12392;42.678;23.380;2023-04-06T02:56:53;8.85;;;4.90;;
24273;SDS011;12392;42.678;23.380;2023-04-06T02:59:19;7.65;;;5.43;;
24273;SDS011;12392;42.678;23.380;2023-04-06T03:01:44;8.35;;;5.60;;
24273;SDS011;12392;42.678;23.380;2023-04-06T03:04:10;8.23;;;5.68;;
24273;SDS011;12392;42.678;23.380;2023-04-06T03:06:36;8.02;;;5.32;;
24273;SDS011;12392;42.678;23.380;2023-04-06T03:09:02;10.18;;;5.40;;
24273;SDS011;12392;42.678;23.380;2023-04-06T03:11:28;7.85;;;4.72;;
24273;SDS011;12392;42.678;23.380;2023-04-06T03:13:53;9.35;;;5.40;;
24273;SDS011;12392;42.678;23.380;2023-04-06T03:16:19;9.02;;;5.80;;
24273;SDS011;12392;42.678;23.380;2023-04-06T03:18:45;8.48;;;4.78;;
24273;SDS011;12392;42.678;23.380;2023-04-06T03:21:12;8.48;;;4.78;;
24273;SDS011;12392;42.678;23.380;2023-04-06T03:23:40;6.90;;;4.25;;
24273;SDS011;12392;42.678;23.380;2023-04-06T03:26:06;8.65;;;4.80;;
24273;SDS011;12392;42.678;23.380;2023-04-06T03:28:32;7.15;;;4.95;;
24273;SDS011;12392;42.678;23.380;2023-04-06T03:30:58;7.28;;;4.82;;
24273;SDS011;12392;42.678;23.380;2023-04-06T03:33:24;10.35;;;5.35;;
24273;SDS011;12392;42.678;23.380;2023-04-06T03:35:52;7.80;;;5.00;;
24273;SDS011;12392;42.678;23.380;2023-04-06T03:38:18;7.22;;;5.03;;
24273;SDS011;12392;42.678;23.380;2023-04-06T03:40:44;8.32;;;4.88;;
24273;SDS011;12392;42.678;23.380;2023-04-06T03:43:10;6.78;;;5.00;;
24273;SDS011;12392;42.678;23.380;2023-04-06T03:45:36;9.05;;;5.55;;
24273;SDS011;12392;42.678;23.380;2023-04-06T03:48:02;7.70;;;4.72;;
24273;SDS011;12392;42.678;23.380;2023-04-06T03:50:27;7.43;;;4.78;;
24273;SDS011;12392;42.678;23.380;2023-04-06T03:52:53;7.45;;;4.72;;
24273;SDS011;12392;42.678;23.380;2023-04-06T03:55:19;7.22;;;4.90;;
24273;SDS011;12392;42.678;23.380;2023-04-06T03:57:45;8.27;;;5.00;;
24273;SDS011;12392;42.678;23.380;2023-04-06T04:00:11;11.85;;;4.55;;
24273;SDS011;12392;42.678;23.380;2023-04-06T04:02:37;7.20;;;4.70;;
24273;SDS011;12392;42.678;23.380;2023-04-06T04:05:03;11.30;;;5.13;;
24273;SDS011;12392;42.678;23.380;2023-04-06T04:07:29;8.48;;;5.20;;
24273;SDS011;12392;42.678;23.380;2023-04-06T04:09:54;6.75;;;4.85;;
24273;SDS011;12392;42.678;23.380;2023-04-06T04:12:20;8.15;;;4.60;;
24273;SDS011;12392;42.678;23.380;2023-04-06T04:14:46;10.73;;;5.22;;
24273;SDS011;12392;42.678;23.380;2023-04-06T04:17:11;10.75;;;5.50;;
24273;SDS011;12392;42.678;23.380;2023-04-06T04:19:37;11.38;;;4.78;;
24273;SDS011;12392;42.678;23.380;2023-04-06T04:22:03;11.95;;;5.25;;
24273;SDS011;12392;42.678;23.380;2023-04-06T04:24:30;11.55;;;5.13;;
24273;SDS011;12392;42.678;23.380;2023-04-06T04:26:55;10.65;;;5.25;;
24273;SDS011;12392;42.678;23.380;2023-04-06T04:29:21;9.35;;;5.75;;
24273;SDS011;12392;42.678;23.380;2023-04-06T04:31:48;9.27;;;5.88;;
24273;SDS011;12392;42.678;23.380;2023-04-06T04:34:14;11.48;;;6.88;;
24273;SDS011;12392;42.678;23.380;2023-04-06T04:36:40;13.40;;;6.93;;
24273;SDS011;12392;42.678;23.380;2023-04-06T04:39:07;8.95;;;5.65;;
24273;SDS011;12392;42.678;23.380;2023-04-06T04:41:33;9.48;;;6.22;;
24273;SDS011;12392;42.678;23.380;2023-04-06T04:43:58;10.63;;;5.90;;
24273;SDS011;12392;42.678;23.380;2023-04-06T04:46:25;13.48;;;7.20;;
24273;SDS011;12392;42.678;23.380;2023-04-06T04:48:51;10.73;;;7.00;;
24273;SDS011;12392;42.678;23.380;2023-04-06T04:51:16;10.15;;;5.10;;
24273;SDS011;12392;42.678;23.380;2023-04-06T04:53:42;9.77;;;5.22;;
24273;SDS011;12392;42.678;23.380;2023-04-06T04:56:08;11.27;;;4.85;;
24273;SDS011;12392;42.678;23.380;2023-04-06T04:58:33;10.73;;;5.50;;
24273;SDS011;12392;42.678;23.380;2023-04-06T05:00:59;9.65;;;5.35;;
24273;SDS011;12392;42.678;23.380;2023-04-06T05:03:25;8.30;;;3.97;;
24273;SDS011;12392;42.678;23.380;2023-04-06T05:05:56;8.43;;;5.15;;
24273;SDS011;12392;42.678;23.380;2023-04-06T05:08:21;8.50;;;5.03;;
24273;SDS011;12392;42.678;23.380;2023-04-06T05:10:47;7.93;;;4.68;;
24273;SDS011;12392;42.678;23.380;2023-04-06T05:13:13;7.03;;;4.97;;
24273;SDS011;12392;42.678;23.380;2023-04-06T05:15:39;8.50;;;5.43;;
24273;SDS011;12392;42.678;23.380;2023-04-06T05:18:06;7.07;;;4.32;;
24273;SDS011;12392;42.678;23.380;2023-04-06T05:20:32;14.25;;;5.28;;
24273;SDS011;12392;42.678;23.380;2023-04-06T05:22:58;12.23;;;6.63;;
24273;SDS011;12392;42.678;23.380;2023-04-06T05:25:24;11.35;;;6.25;;
24273;SDS011;12392;42.678;23.380;2023-04-06T05:27:50;12.57;;;5.43;;
24273;SDS011;12392;42.678;23.380;2023-04-06T05:30:16;12.60;;;5.20;;
24273;SDS011;12392;42.678;23.380;2023-04-06T05:32:41;8.05;;;5.03;;
24273;SDS011;12392;42.678;23.380;2023-04-06T05:35:09;10.77;;;6.63;;
24273;SDS011;12392;42.678;23.380;2023-04-06T05:37:35;10.18;;;6.25;;
24273;SDS011;12392;42.678;23.380;2023-04-06T05:40:01;11.30;;;6.68;;
24273;SDS011;12392;42.678;23.380;2023-04-06T05:42:27;11.25;;;7.07;;
24273;SDS011;12392;42.678;23.380;2023-04-06T05:44:53;15.75;;;6.70;;
24273;SDS011;12392;42.678;23.380;2023-04-06T05:47:19;11.63;;;6.40;;
24273;SDS011;12392;42.678;23.380;2023-04-06T05:49:45;11.82;;;6.78;;
24273;SDS011;12392;42.678;23.380;2023-04-06T05:52:12;11.30;;;6.20;;
24273;SDS011;12392;42.678;23.380;2023-04-06T05:54:38;11.68;;;6.82;;
24273;SDS011;12392;42.678;23.380;2023-04-06T05:57:04;11.25;;;7.18;;
24273;SDS011;12392;42.678;23.380;2023-04-06T05:59:30;18.13;;;7.90;;
24273;SDS011;12392;42.678;23.380;2023-04-06T06:01:58;15.68;;;7.93;;
24273;SDS011;12392;42.678;23.380;2023-04-06T06:04:23;12.38;;;6.88;;
24273;SDS011;12392;42.678;23.380;2023-04-06T06:06:49;15.18;;;7.88;;
24273;SDS011;12392;42.678;23.380;2023-04-06T06:09:15;14.40;;;8.20;;
24273;SDS011;12392;42.678;23.380;2023-04-06T06:11:41;13.40;;;7.38;;
24273;SDS011;12392;42.678;23.380;2023-04-06T06:14:09;17.20;;;8.93;;
24273;SDS011;12392;42.678;23.380;2023-04-06T06:16:47;15.30;;;8.15;;
24273;SDS011;12392;42.678;23.380;2023-04-06T06:19:14;17.02;;;8.80;;
24273;SDS011;12392;42.678;23.380;2023-04-06T06:21:40;14.18;;;8.38;;
24273;SDS011;12392;42.678;23.380;2023-04-06T06:24:07;15.52;;;8.15;;
24273;SDS011;12392;42.678;23.380;2023-04-06T06:26:33;18.75;;;9.30;;
24273;SDS011;12392;42.678;23.380;2023-04-06T06:29:02;10.88;;;6.65;;
24273;SDS011;12392;42.678;23.380;2023-04-06T06:31:28;9.65;;;6.22;;
24273;SDS011;12392;42.678;23.380;2023-04-06T06:33:54;12.02;;;6.82;;
24273;SDS011;12392;42.678;23.380;2023-04-06T06:36:19;13.32;;;7.57;;
24273;SDS011;12392;42.678;23.380;2023-04-06T06:38:45;13.00;;;7.18;;
24273;SDS011;12392;42.678;23.380;2023-04-06T06:41:11;11.63;;;6.30;;
24273;SDS011;12392;42.678;23.380;2023-04-06T06:43:36;10.27;;;6.07;;
24273;SDS011;12392;42.678;23.380;2023-04-06T06:46:03;12.50;;;7.07;;
24273;SDS011;12392;42.678;23.380;2023-04-06T06:48:28;9.77;;;5.90;;
24273;SDS011;12392;42.678;23.380;2023-04-06T06:50:54;11.73;;;6.40;;
24273;SDS011;12392;42.678;23.380;2023-04-06T06:53:20;12.60;;;7.05;;
24273;SDS011;12392;42.678;23.380;2023-04-06T06:55:46;12.43;;;7.35;;
24273;SDS011;12392;42.678;23.380;2023-04-06T06:58:13;12.20;;;7.75;;
24273;SDS011;12392;42.678;23.380;2023-04-06T07:00:39;11.15;;;6.50;;
24273;SDS011;12392;42.678;23.380;2023-04-06T07:03:05;11.98;;;6.35;;
24273;SDS011;12392;42.678;23.380;2023-04-06T07:05:31;11.25;;;6.25;;
24273;SDS011;12392;42.678;23.380;2023-04-06T07:07:57;15.20;;;8.93;;
24273;SDS011;12392;42.678;23.380;2023-04-06T07:10:22;9.95;;;5.53;;
24273;SDS011;12392;42.678;23.380;2023-04-06T07:12:48;12.60;;;6.72;;
24273;SDS011;12392;42.678;23.380;2023-04-06T07:15:14;10.00;;;6.85;;
24273;SDS011;12392;42.678;23.380;2023-04-06T07:17:40;14.25;;;8.10;;
24273;SDS011;12392;42.678;23.380;2023-04-06T07:20:06;11.23;;;6.78;;
24273;SDS011;12392;42.678;23.380;2023-04-06T07:22:32;12.25;;;6.82;;
24273;SDS011;12392;42.678;23.380;2023-04-06T07:24:58;10.43;;;6.65;;
24273;SDS011;12392;42.678;23.380;2023-04-06T07:27:24;11.02;;;6.25;;
24273;SDS011;12392;42.678;23.380;2023-04-06T07:29:49;10.07;;;6.82;;
24273;SDS011;12392;42.678;23.380;2023-04-06T07:32:15;11.48;;;6.10;;
24273;SDS011;12392;42.678;23.380;2023-04-06T07:34:41;13.30;;;6.80;;
24273;SDS011;12392;42.678;23.380;2023-04-06T07:37:06;16.77;;;8.38;;
24273;SDS011;12392;42.678;23.380;2023-04-06T07:39:32;10.98;;;7.20;;
24273;SDS011;12392;42.678;23.380;2023-04-06T07:41:58;15.05;;;8.43;;
24273;SDS011;12392;42.678;23.380;2023-04-06T07:44:24;10.50;;;6.30;;
24273;SDS011;12392;42.678;23.380;2023-04-06T07:46:50;13.23;;;7.00;;
24273;SDS011;12392;42.678;23.380;2023-04-06T07:49:16;12.45;;;6.80;;
24273;SDS011;12392;42.678;23.380;2023-04-06T07:51:41;11.23;;;6.75;;
24273;SDS011;12392;42.678;23.380;2023-04-06T07:54:07;8.55;;;6.10;;
24273;SDS011;12392;42.678;23.380;2023-04-06T07:56:33;12.25;;;6.25;;
24273;SDS011;12392;42.678;23.380;2023-04-06T07:58:59;11.18;;;6.28;;
24273;SDS011;12392;42.678;23.380;2023-04-06T08:01:25;11.85;;;6.28;;
24273;SDS011;12392;42.678;23.380;2023-04-06T08:03:52;9.63;;;6.25;;
24273;SDS011;12392;42.678;23.380;2023-04-06T08:06:17;12.25;;;7.03;;
24273;SDS011;12392;42.678;23.380;2023-04-06T08:08:43;10.90;;;6.47;;
24273;SDS011;12392;42.678;23.380;2023-04-06T08:11:09;9.38;;;5.40;;
24273;SDS011;12392;42.678;23.380;2023-04-06T08:13:35;10.35;;;6.00;;
24273;SDS011;12392;42.678;23.380;2023-04-06T08:16:00;6.93;;;5.53;;
24273;SDS011;12392;42.678;23.380;2023-04-06T08:18:26;8.63;;;5.65;;
24273;SDS011;12392;42.678;23.380;2023-04-06T08:20:52;8.68;;;5.90;;
24273;SDS011;12392;42.678;23.380;2023-04-06T08:23:19;7.40;;;5.22;;
24273;SDS011;12392;42.678;23.380;2023-04-06T08:25:45;9.32;;;4.70;;
24273;SDS011;12392;42.678;23.380;2023-04-06T08:28:13;8.68;;;5.82;;
24273;SDS011;12392;42.678;23.380;2023-04-06T08:30:39;7.30;;;5.25;;
24273;SDS011;12392;42.678;23.380;2023-04-06T08:33:06;9.32;;;5.57;;
24273;SDS011;12392;42.678;23.380;2023-04-06T08:35:31;6.47;;;4.93;;
24273;SDS011;12392;42.678;23.380;2023-04-06T08:37:57;9.65;;;6.07;;
24273;SDS011;12392;42.678;23.380;2023-04-06T08:40:23;10.43;;;5.80;;
24273;SDS011;12392;42.678;23.380;2023-04-06T08:42:50;15.27;;;9.82;;
24273;SDS011;12392;42.678;23.380;2023-04-06T08:45:19;13.32;;;6.15;;
24273;SDS011;12392;42.678;23.380;2023-04-06T08:47:46;5.70;;;4.70;;
24273;SDS011;12392;42.678;23.380;2023-04-06T08:50:16;8.00;;;4.43;;
24273;SDS011;12392;42.678;23.380;2023-04-06T08:52:46;9.07;;;5.70;;
24273;SDS011;12392;42.678;23.380;2023-04-06T08:55:12;9.43;;;5.88;;
24273;SDS011;12392;42.678;23.380;2023-04-06T08:57:38;12.23;;;6.80;;
24273;SDS011;12392;42.678;23.380;2023-04-06T09:00:05;8.23;;;5.25;;
24273;SDS011;12392;42.678;23.380;2023-04-06T09:02:32;14.40;;;5.93;;
24273;SDS011;12392;42.678;23.380;2023-04-06T09:04:58;7.95;;;4.50;;
24273;SDS011;12392;42.678;23.380;2023-04-06T09:07:24;9.00;;;5.40;;
24273;SDS011;12392;42.678;23.380;2023-04-06T09:09:50;7.55;;;5.10;;
24273;SDS011;12392;42.678;23.380;2023-04-06T09:12:27;8.88;;;5.50;;
24273;SDS011;12392;42.678;23.380;2023-04-06T09:14:54;8.57;;;4.88;;
24273;SDS011;12392;42.678;23.380;2023-04-06T09:17:25;7.90;;;4.85;;
24273;SDS011;12392;42.678;23.380;2023-04-06T09:19:52;7.78;;;4.82;;
24273;SDS011;12392;42.678;23.380;2023-04-06T09:22:18;8.48;;;4.82;;
24273;SDS011;12392;42.678;23.380;2023-04-06T09:24:46;13.32;;;5.03;;
24273;SDS011;12392;42.678;23.380;2023-04-06T09:27:12;7.43;;;4.75;;
24273;SDS011;12392;42.678;23.380;2023-04-06T09:29:39;8.82;;;5.22;;
24273;SDS011;12392;42.678;23.380;2023-04-06T09:32:06;9.32;;;5.50;;
24273;SDS011;12392;42.678;23.380;2023-04-06T09:34:35;10.02;;;5.63;;
24273;SDS011;12392;42.678;23.380;2023-04-06T09:37:11;7.75;;;5.32;;
24273;SDS011;12392;42.678;23.380;2023-04-06T09:39:38;8.45;;;6.00;;
24273;SDS011;12392;42.678;23.380;2023-04-06T09:42:04;7.57;;;4.82;;
24273;SDS011;12392;42.678;23.380;2023-04-06T09:44:30;9.15;;;5.32;;
24273;SDS011;12392;42.678;23.380;2023-04-06T09:46:56;7.30;;;5.18;;
24273;SDS011;12392;42.678;23.380;2023-04-06T09:49:21;6.32;;;4.85;;
24273;SDS011;12392;42.678;23.380;2023-04-06T09:51:49;10.27;;;5.10;;
24273;SDS011;12392;42.678;23.380;2023-04-06T09:54:31;8.65;;;5.80;;
24273;SDS011;12392;42.678;23.380;2023-04-06T10:05:37;10.45;;;5.45;;
24273;SDS011;12392;42.678;23.380;2023-04-06T10:08:09;7.50;;;5.32;;
24273;SDS011;12392;42.678;23.380;2023-04-06T10:10:35;9.73;;;5.50;;
24273;SDS011;12392;42.678;23.380;2023-04-06T10:13:01;13.60;;;5.10;;
24273;SDS011;12392;42.678;23.380;2023-04-06T10:15:28;6.85;;;4.82;;
24273;SDS011;12392;42.678;23.380;2023-04-06T10:17:55;7.85;;;5.13;;
24273;SDS011;12392;42.678;23.380;2023-04-06T10:20:43;7.45;;;4.60;;
24273;SDS011;12392;42.678;23.380;2023-04-06T10:23:12;6.38;;;4.47;;
24273;SDS011;12392;42.678;23.380;2023-04-06T10:25:59;6.45;;;4.65;;
24273;SDS011;12392;42.678;23.380;2023-04-06T10:28:31;10.52;;;5.25;;
24273;SDS011;12392;42.678;23.380;2023-04-06T10:30:59;9.55;;;5.57;;
24273;SDS011;12392;42.678;23.380;2023-04-06T10:33:27;6.00;;;4.60;;
24273;SDS011;12392;42.678;23.380;2023-04-06T10:35:53;6.47;;;4.88;;
24273;SDS011;12392;42.678;23.380;2023-04-06T10:38:20;6.85;;;5.07;;
24273;SDS011;12392;42.678;23.380;2023-04-06T10:40:47;9.30;;;5.55;;
24273;SDS011;12392;42.678;23.380;2023-04-06T10:43:17;6.72;;;4.90;;
24273;SDS011;12392;42.678;23.380;2023-04-06T10:45:45;9.35;;;4.95;;
24273;SDS011;12392;42.678;23.380;2023-04-06T10:48:22;7.57;;;4.63;;
24273;SDS011;12392;42.678;23.380;2023-04-06T10:50:49;5.97;;;4.05;;
24273;SDS011;12392;42.678;23.380;2023-04-06T10:53:22;6.72;;;4.47;;
24273;SDS011;12392;42.678;23.380;2023-04-06T10:55:49;5.40;;;4.20;;
24273;SDS011;12392;42.678;23.380;2023-04-06T10:58:16;7.55;;;5.55;;
24273;SDS011;12392;42.678;23.380;2023-04-06T11:00:45;9.43;;;4.75;;
24273;SDS011;12392;42.678;23.380;2023-04-06T11:03:12;8.35;;;4.70;;
24273;SDS011;12392;42.678;23.380;2023-04-06T11:05:38;8.65;;;5.72;;
24273;SDS011;12392;42.678;23.380;2023-04-06T11:08:04;8.15;;;4.90;;
24273;SDS011;12392;42.678;23.380;2023-04-06T11:10:29;6.65;;;3.95;;
24273;SDS011;12392;42.678;23.380;2023-04-06T11:12:56;9.70;;;5.25;;
24273;SDS011;12392;42.678;23.380;2023-04-06T11:15:21;7.10;;;4.90;;
24273;SDS011;12392;42.678;23.380;2023-04-06T11:17:48;9.05;;;5.50;;
24273;SDS011;12392;42.678;23.380;2023-04-06T11:20:14;6.55;;;4.68;;
24273;SDS011;12392;42.678;23.380;2023-04-06T11:22:50;9.30;;;5.43;;
24273;SDS011;12392;42.678;23.380;2023-04-06T11:25:16;7.20;;;4.53;;
24273;SDS011;12392;42.678;23.380;2023-04-06T11:27:43;9.73;;;5.38;;
24273;SDS011;12392;42.678;23.380;2023-04-06T11:30:09;7.28;;;4.55;;
24273;SDS011;12392;42.678;23.380;2023-04-06T11:32:39;8.65;;;5.07;;
24273;SDS011;12392;42.678;23.380;2023-04-06T11:35:24;10.77;;;6.05;;
24273;SDS011;12392;42.678;23.380;2023-04-06T11:37:50;6.93;;;4.45;;
24273;SDS011;12392;42.678;23.380;2023-04-06T11:40:20;8.27;;;3.95;;
24273;SDS011;12392;42.678;23.380;2023-04-06T11:42:52;5.28;;;3.90;;
24273;SDS011;12392;42.678;23.380;2023-04-06T11:45:18;8.05;;;5.03;;
24273;SDS011;12392;42.678;23.380;2023-04-06T11:47:44;8.07;;;5.50;;
24273;SDS011;12392;42.678;23.380;2023-04-06T11:50:10;8.25;;;5.07;;
24273;SDS011;12392;42.678;23.380;2023-04-06T11:52:41;8.82;;;4.95;;
24273;SDS011;12392;42.678;23.380;2023-04-06T11:55:10;9.07;;;4.85;;
24273;SDS011;12392;42.678;23.380;2023-04-06T11:57:38;6.75;;;4.60;;
24273;SDS011;12392;42.678;23.380;2023-04-06T12:00:04;8.93;;;5.35;;
24273;SDS011;12392;42.678;23.380;2023-04-06T12:02:31;7.93;;;4.93;;
24273;SDS011;12392;42.678;23.380;2023-04-06T12:04:57;9.30;;;5.20;;
24273;SDS011;12392;42.678;23.380;2023-04-06T12:07:23;9.32;;;5.50;;
24273;SDS011;12392;42.678;23.380;2023-04-06T12:09:48;8.82;;;5.40;;
24273;SDS011;12392;42.678;23.380;2023-04-06T12:12:14;9.50;;;5.97;;
24273;SDS011;12392;42.678;23.380;2023-04-06T12:14:40;8.02;;;5.10;;
24273;SDS011;12392;42.678;23.380;2023-04-06T12:17:06;5.90;;;4.28;;
24273;SDS011;12392;42.678;23.380;2023-04-06T12:19:31;9.75;;;5.28;;
24273;SDS011;12392;42.678;23.380;2023-04-06T12:21:57;6.90;;;4.85;;
24273;SDS011;12392;42.678;23.380;2023-04-06T12:24:23;6.90;;;5.13;;
24273;SDS011;12392;42.678;23.380;2023-04-06T12:26:49;10.25;;;5.18;;
24273;SDS011;12392;42.678;23.380;2023-04-06T12:29:14;7.00;;;4.25;;
24273;SDS011;12392;42.678;23.380;2023-04-06T12:31:40;6.60;;;4.65;;
24273;SDS011;12392;42.678;23.380;2023-04-06T12:34:08;7.18;;;4.55;;
24273;SDS011;12392;42.678;23.380;2023-04-06T12:36:33;10.63;;;4.75;;
24273;SDS011;12392;42.678;23.380;2023-04-06T12:39:00;7.72;;;5.03;;
24273;SDS011;12392;42.678;23.380;2023-04-06T12:41:27;9.38;;;5.00;;
24273;SDS011;12392;42.678;23.380;2023-04-06T12:43:53;11.70;;;4.68;;
24273;SDS011;12392;42.678;23.380;2023-04-06T12:46:19;9.27;;;4.45;;
24273;SDS011;12392;42.678;23.380;2023-04-06T12:48:45;6.53;;;4.30;;
24273;SDS011;12392;42.678;23.380;2023-04-06T12:51:11;7.25;;;4.57;;
24273;SDS011;12392;42.678;23.380;2023-04-06T12:53:37;9.48;;;4.72;;
24273;SDS011;12392;42.678;23.380;2023-04-06T12:56:09;9.25;;;4.25;;
24273;SDS011;12392;42.678;23.380;2023-04-06T12:58:42;10.10;;;5.63;;
24273;SDS011;12392;42.678;23.380;2023-04-06T13:01:08;7.82;;;4.05;;
24273;SDS011;12392;42.678;23.380;2023-04-06T13:03:34;7.18;;;4.75;;
24273;SDS011;12392;42.678;23.380;2023-04-06T13:06:01;11.27;;;4.80;;
24273;SDS011;12392;42.678;23.380;2023-04-06T13:08:27;5.97;;;4.70;;
24273;SDS011;12392;42.678;23.380;2023-04-06T13:10:53;6.40;;;4.07;;
24273;SDS011;12392;42.678;23.380;2023-04-06T13:13:26;9.80;;;4.82;;
24273;SDS011;12392;42.678;23.380;2023-04-06T13:16:02;7.07;;;5.05;;
24273;SDS011;12392;42.678;23.380;2023-04-06T13:18:30;8.95;;;5.13;;
24273;SDS011;12392;42.678;23.380;2023-04-06T13:20:57;9.48;;;5.22;;
24273;SDS011;12392;42.678;23.380;2023-04-06T13:23:24;12.25;;;5.82;;
24273;SDS011;12392;42.678;23.380;2023-04-06T13:25:57;7.18;;;5.50;;
24273;SDS011;12392;42.678;23.380;2023-04-06T13:28:24;9.52;;;5.47;;
24273;SDS011;12392;42.678;23.380;2023-04-06T13:30:51;9.20;;;5.30;;
24273;SDS011;12392;42.678;23.380;2023-04-06T13:33:17;6.97;;;4.90;;
24273;SDS011;12392;42.678;23.380;2023-04-06T13:35:46;9.48;;;6.25;;
24273;SDS011;12392;42.678;23.380;2023-04-06T13:38:11;6.75;;;4.65;;
24273;SDS011;12392;42.678;23.380;2023-04-06T13:40:41;5.70;;;4.32;;
24273;SDS011;12392;42.678;23.380;2023-04-06T13:43:07;6.30;;;4.40;;
24273;SDS011;12392;42.678;23.380;2023-04-06T13:45:33;9.43;;;5.00;;
24273;SDS011;12392;42.678;23.380;2023-04-06T13:47:59;7.80;;;4.50;;
24273;SDS011;12392;42.678;23.380;2023-04-06T13:50:28;7.55;;;4.90;;
24273;SDS011;12392;42.678;23.380;2023-04-06T13:52:54;9.15;;;5.18;;
24273;SDS011;12392;42.678;23.380;2023-04-06T13:55:21;12.00;;;5.72;;
24273;SDS011;12392;42.678;23.380;2023-04-06T13:57:49;4.88;;;3.65;;
24273;SDS011;12392;42.678;23.380;2023-04-06T14:00:15;12.60;;;4.30;;
24273;SDS011;12392;42.678;23.380;2023-04-06T14:02:41;6.97;;;4.70;;
24273;SDS011;12392;42.678;23.380;2023-04-06T14:05:07;9.07;;;5.28;;
24273;SDS011;12392;42.678;23.380;2023-04-06T14:07:33;6.88;;;4.30;;
24273;SDS011;12392;42.678;23.380;2023-04-06T14:09:59;5.88;;;4.68;;
24273;SDS011;12392;42.678;23.380;2023-04-06T14:12:25;8.95;;;5.28;;
24273;SDS011;12392;42.678;23.380;2023-04-06T14:14:51;8.05;;;4.93;;
24273;SDS011;12392;42.678;23.380;2023-04-06T14:17:17;8.00;;;5.07;;
24273;SDS011;12392;42.678;23.380;2023-04-06T14:19:43;6.97;;;4.72;;
24273;SDS011;12392;42.678;23.380;2023-04-06T14:22:09;11.07;;;5.13;;
24273;SDS011;12392;42.678;23.380;2023-04-06T14:24:35;7.65;;;5.22;;
24273;SDS011;12392;42.678;23.380;2023-04-06T14:27:01;8.90;;;4.85;;
24273;SDS011;12392;42.678;23.380;2023-04-06T14:29:27;7.75;;;5.20;;
24273;SDS011;12392;42.678;23.380;2023-04-06T14:31:53;12.57;;;5.80;;
24273;SDS011;12392;42.678;23.380;2023-04-06T14:34:25;6.88;;;4.68;;